Time;durP1;ratioP1;P1;durP2;ratioP2;P2;SDS_P1;SDS_P2;PMS_P1;PMS_P2;Temp;Humidity;BMP_temperature;BMP_pressure;BME280_temperature;BME280_humidity;BME280_pressure;Samples;Min_cycle;Max_cycle;Signal;HPM_P1;HPM_P2
2023/11/06 00:01:02;;;;;;;;;;;;;;;;;;2192500;59;3407;-26
2023/11/06 00:03:32;;;;;;;;;;;;;;;;;;2201273;59;3140;-26
2023/11/06 00:06:03;;;;;;;;;;;;;;;;;;2200260;67;4088;-27
2023/11/06 00:08:33;;;;;;;;;;;;;;;;;;2196633;67;4699;-27
2023/11/06 00:11:05;;;;;;;;;;;;;;;;;;2200305;67;3512;-27
2023/11/06 00:13:35;;;;;;;;;;;;;;;;;;2194095;67;3749;-27
2023/11/06 00:16:06;;;;;;;;;;;;;;;;;;2195159;59;3628;-27
2023/11/06 00:18:36;;;;;;;;;;;;;;;;;;2200628;67;2465;-27
2023/11/06 00:21:10;;;;;;;;;;;;;;;;;;2192222;67;3822;-27
2023/11/06 00:23:40;;;;;;;;;;;;;;;;;;2200635;67;3730;-27
2023/11/06 00:26:14;;;;;;;;;;;;;;;;;;2192973;67;3304;-27
2023/11/06 00:28:44;;;;;;;;;;;;;;;;;;2197709;59;3153;-27
2023/11/06 00:31:17;;;;;;;;;;;;;;;;;;2199377;67;4281;-27
2023/11/06 00:33:48;;;;;;;;;;;;;;;;;;2199640;59;3032;-27
2023/11/06 00:36:19;;;;;;;;;;;;;;;;;;2199862;59;3466;-27
2023/11/06 00:38:49;;;;;;;;;;;;;;;;;;2198721;59;4058;-27
2023/11/06 00:41:20;;;;;;;;;;;;;;;;;;2201712;59;2609;-27
2023/11/06 00:43:50;;;;;;;;;;;;;;;;;;2200292;59;3313;-27
2023/11/06 00:46:20;;;;;;;;;;;;;;;;;;2200306;67;2888;-27
2023/11/06 00:48:51;;;;;;;;;;;;;;;;;;2196687;67;4130;-27
2023/11/06 00:51:22;;;;;;;;;;;;;;;;;;2198680;67;3182;-27
2023/11/06 00:53:52;;;;;;;;;;;;;;;;;;2200311;59;4113;-27
2023/11/06 00:56:22;;;;;;;;;;;;;;;;;;2196375;67;3250;-28
2023/11/06 00:58:52;;;;;;;;;;;;;;;;;;2198311;67;4070;-27
2023/11/06 01:01:22;;;;;;;;;;;;;;;;;;2201150;59;3391;-25
2023/11/06 01:03:54;;;;;;;;;;;;;;;;;;2196756;67;2693;-27
2023/11/06 01:06:24;;;;;;;;;;;;;;;;;;2203746;59;2658;-27
2023/11/06 01:08:56;;;;;;;;;;;;;;;;;;2200803;67;2726;-27
2023/11/06 01:11:26;;;;;;;;;;;;;;;;;;2196759;59;2636;-27
2023/11/06 01:13:57;;;;;;;;;;;;;;;;;;2196930;67;2543;-27
2023/11/06 01:16:27;;;;;;;;;;;;;;;;;;2196889;59;2727;-27
2023/11/06 01:18:57;;;;;;;;;;;;;;;;;;2195874;67;2895;-27
2023/11/06 01:21:27;;;;;;;;;;;;;;;;;;2201222;59;2909;-28
2023/11/06 01:23:58;;;;;;;;;;;;;;;;;;2196342;67;4150;-28
2023/11/06 01:26:28;;;;;;;;;;;;;;;;;;2198215;67;2998;-28
2023/11/06 01:28:58;;;;;;;;;;;;;;;;;;2199994;59;3528;-28
2023/11/06 01:31:28;;;;;;;;;;;;;;;;;;2202111;67;2441;-28
2023/11/06 01:33:59;;;;;;;;;;;;;;;;;;2200159;59;2639;-28
2023/11/06 01:36:29;;;;;;;;;;;;;;;;;;2202633;59;2528;-27
2023/11/06 01:38:59;;;;;;;;;;;;;;;;;;2196229;59;2709;-27
2023/11/06 01:41:29;;;;;;;;;;;;;;;;;;2197857;59;2183;-27
2023/11/06 01:43:59;;;;;;;;;;;;;;;;;;2195715;59;3509;-27
2023/11/06 01:46:30;;;;;;;;;;;;;;;;;;2201690;67;3618;-27
2023/11/06 01:49:01;;;;;;;;;;;;;;;;;;2199813;67;3978;-27
2023/11/06 01:51:32;;;;;;;;;;;;;;;;;;2202394;67;2292;-27
2023/11/06 01:54:03;;;;;;;;;;;;;;;;;;2199565;67;3393;-25
2023/11/06 01:56:34;;;;;;;;;;;;;;;;;;2198004;67;4317;-25
2023/11/06 01:59:04;;;;;;;;;;;;;;;;;;2199517;67;3424;-25
2023/11/06 02:01:40;;;;;;;;;;;;;;;;;;2201529;59;3783;-25
2023/11/06 02:04:11;;;;;;;;;;;;;;;;;;2200643;59;3454;-25
2023/11/06 02:06:45;;;;;;;;;;;;;;;;;;2202375;67;3846;-25
2023/11/06 02:09:16;;;;;;;;;;;;;;;;;;2199341;67;3233;-25
2023/11/06 02:11:47;;;;;;;;;;;;;;;;;;2202058;67;3867;-25
2023/11/06 02:14:17;;;;;;;;;;;;;;;;;;2199785;59;3433;-25
2023/11/06 02:16:47;;;;;;;;;;;;;;;;;;2202360;67;2845;-25
2023/11/06 02:19:17;;;;;;;;;;;;;;;;;;2199261;67;3729;-25
2023/11/06 02:21:52;;;;;;;;;;;;;;;;;;2202751;67;2482;-25
2023/11/06 02:24:23;;;;;;;;;;;;;;;;;;2198804;67;2859;-25
2023/11/06 02:26:56;;;;;;;;;;;;;;;;;;2202046;67;3433;-25
2023/11/06 02:29:26;;;;;;;;;;;;;;;;;;2201518;59;3547;-25
2023/11/06 02:31:57;;;;;;;;;;;;;;;;;;2198077;59;2905;-25
2023/11/06 02:34:27;;;;;;;;;;;;;;;;;;2196993;67;3938;-25
2023/11/06 02:36:57;;;;;;;;;;;;;;;;;;2196234;59;4087;-25
2023/11/06 02:39:27;;;;;;;;;;;;;;;;;;2201572;59;3436;-25
2023/11/06 02:41:58;;;;;;;;;;;;;;;;;;2198214;59;3567;-25
2023/11/06 02:44:28;;;;;;;;;;;;;;;;;;2202261;59;2337;-25
2023/11/06 02:46:58;;;;;;;;;;;;;;;;;;2197073;67;3357;-24
2023/11/06 02:49:29;;;;;;;;;;;;;;;;;;2201674;67;3907;-25
2023/11/06 02:51:59;;;;;;;;;;;;;;;;;;2195522;67;2489;-24
2023/11/06 02:54:29;;;;;;;;;;;;;;;;;;2197161;67;2667;-25
2023/11/06 02:56:59;;;;;;;;;;;;;;;;;;2200045;59;3528;-25
2023/11/06 02:59:30;;;;;;;;;;;;;;;;;;2200717;67;3084;-24
2023/11/06 03:02:01;;;;;;;;;;;;;;;;;;2199210;59;3721;-25
2023/11/06 03:04:32;;;;;;;;;;;;;;;;;;2201035;67;3265;-24
2023/11/06 03:07:02;;;;;;;;;;;;;;;;;;2198723;59;2628;-24
2023/11/06 03:09:32;;;;;;;;;;;;;;;;;;2201842;67;2970;-26
2023/11/06 03:12:03;;;;;;;;;;;;;;;;;;2199629;67;3696;-25
2023/11/06 03:14:34;;;;;;;;;;;;;;;;;;2201195;67;3340;-24
2023/11/06 03:17:04;;;;;;;;;;;;;;;;;;2199850;59;2681;-24
2023/11/06 03:19:35;;;;;;;;;;;;;;;;;;2198799;67;2665;-24
2023/11/06 03:22:05;;;;;;;;;;;;;;;;;;2200160;67;2886;-25
2023/11/06 03:24:35;;;;;;;;;;;;;;;;;;2202514;67;2633;-24
2023/11/06 03:27:06;;;;;;;;;;;;;;;;;;2196470;67;3268;-24
2023/11/06 03:29:36;;;;;;;;;;;;;;;;;;2201156;63;2482;-24
2023/11/06 03:32:06;;;;;;;;;;;;;;;;;;2196382;67;2630;-24
2023/11/06 03:34:36;;;;;;;;;;;;;;;;;;2201099;67;2664;-24
2023/11/06 03:37:07;;;;;;;;;;;;;;;;;;2199660;59;2602;-24
2023/11/06 03:39:37;;;;;;;;;;;;;;;;;;2197803;59;2645;-24
2023/11/06 03:42:07;;;;;;;;;;;;;;;;;;2199497;59;3781;-25
2023/11/06 03:44:37;;;;;;;;;;;;;;;;;;2200967;67;3935;-24
2023/11/06 03:47:08;;;;;;;;;;;;;;;;;;2195395;59;2931;-24
2023/11/06 03:49:39;;;;;;;;;;;;;;;;;;2201275;59;3202;-23
2023/11/06 03:52:11;;;;;;;;;;;;;;;;;;2199534;67;2911;-23
2023/11/06 03:54:42;;;;;;;;;;;;;;;;;;2200672;67;3335;-23
2023/11/06 03:57:12;;;;;;;;;;;;;;;;;;2199128;67;2691;-23
2023/11/06 03:59:42;;;;;;;;;;;;;;;;;;2200748;67;3180;-23
2023/11/06 04:02:13;;;;;;;;;;;;;;;;;;2195851;59;3754;-23
2023/11/06 04:04:43;;;;;;;;;;;;;;;;;;2197639;67;2903;-23
2023/11/06 04:07:13;;;;;;;;;;;;;;;;;;2199456;59;2480;-23
2023/11/06 04:09:43;;;;;;;;;;;;;;;;;;2201785;59;2866;-23
2023/11/06 04:12:14;;;;;;;;;;;;;;;;;;2195612;67;3788;-24
2023/11/06 04:14:44;;;;;;;;;;;;;;;;;;2202113;59;2491;-24
2023/11/06 04:17:14;;;;;;;;;;;;;;;;;;2195975;67;2439;-24
2023/11/06 04:19:44;;;;;;;;;;;;;;;;;;2201932;67;1908;-24
2023/11/06 04:22:15;;;;;;;;;;;;;;;;;;2199992;67;2416;-24
2023/11/06 04:24:45;;;;;;;;;;;;;;;;;;2198313;67;2511;-24
2023/11/06 04:27:15;;;;;;;;;;;;;;;;;;2196726;67;3409;-23
2023/11/06 04:29:45;;;;;;;;;;;;;;;;;;2201381;59;2578;-23
2023/11/06 04:32:16;;;;;;;;;;;;;;;;;;2195955;67;2596;-23
2023/11/06 04:34:46;;;;;;;;;;;;;;;;;;2198217;67;2228;-23
2023/11/06 04:37:16;;;;;;;;;;;;;;;;;;2199220;59;2599;-23
2023/11/06 04:39:46;;;;;;;;;;;;;;;;;;2198067;59;1795;-23
2023/11/06 04:42:18;;;;;;;;;;;;;;;;;;2199866;59;2379;-23
2023/11/06 04:44:48;;;;;;;;;;;;;;;;;;2200637;59;2136;-23
2023/11/06 04:47:18;;;;;;;;;;;;;;;;;;2199055;67;3470;-23
2023/11/06 04:49:48;;;;;;;;;;;;;;;;;;2201495;60;2586;-23
2023/11/06 04:52:19;;;;;;;;;;;;;;;;;;2199027;67;2701;-23
2023/11/06 04:54:49;;;;;;;;;;;;;;;;;;2201135;59;2614;-23
2023/11/06 04:57:19;;;;;;;;;;;;;;;;;;2195735;64;3516;-23
2023/11/06 04:59:49;;;;;;;;;;;;;;;;;;2201183;67;2556;-24
2023/11/06 05:02:19;;;;;;;;;;;;;;;;;;2195647;59;3426;-24
2023/11/06 05:04:50;;;;;;;;;;;;;;;;;;2201952;67;2418;-24
2023/11/06 05:07:20;;;;;;;;;;;;;;;;;;2194451;59;2920;-24
2023/11/06 05:09:50;;;;;;;;;;;;;;;;;;2198180;67;2647;-24
2023/11/06 05:12:20;;;;;;;;;;;;;;;;;;2199734;59;2530;-23
2023/11/06 05:14:51;;;;;;;;;;;;;;;;;;2201189;67;2701;-23
2023/11/06 05:17:21;;;;;;;;;;;;;;;;;;2199039;67;2784;-24
2023/11/06 05:19:51;;;;;;;;;;;;;;;;;;2196787;67;4334;-23
2023/11/06 05:22:22;;;;;;;;;;;;;;;;;;2195659;60;3567;-23
2023/11/06 05:24:52;;;;;;;;;;;;;;;;;;2201388;67;2901;-23
2023/11/06 05:27:22;;;;;;;;;;;;;;;;;;2196232;67;3652;-23
2023/11/06 05:29:52;;;;;;;;;;;;;;;;;;2201107;59;2610;-24
2023/11/06 05:32:22;;;;;;;;;;;;;;;;;;2196178;59;2837;-24
2023/11/06 05:34:53;;;;;;;;;;;;;;;;;;2201193;67;3049;-24
2023/11/06 05:37:27;;;;;;;;;;;;;;;;;;2198443;59;3339;-24
2023/11/06 05:39:57;;;;;;;;;;;;;;;;;;2200823;59;2630;-24
2023/11/06 05:42:27;;;;;;;;;;;;;;;;;;2195919;67;3569;-24
2023/11/06 05:44:57;;;;;;;;;;;;;;;;;;2198484;59;3943;-24
2023/11/06 05:47:27;;;;;;;;;;;;;;;;;;2192790;59;2310;-24
2023/11/06 05:49:58;;;;;;;;;;;;;;;;;;2198122;67;2542;-24
2023/11/06 05:52:28;;;;;;;;;;;;;;;;;;2196454;67;2355;-24
2023/11/06 05:54:58;;;;;;;;;;;;;;;;;;2197776;67;2395;-24
2023/11/06 05:57:28;;;;;;;;;;;;;;;;;;2195505;67;3808;-24
2023/11/06 05:59:58;;;;;;;;;;;;;;;;;;2198204;67;2914;-24
2023/11/06 06:02:29;;;;;;;;;;;;;;;;;;2198761;67;3319;-24
2023/11/06 06:04:59;;;;;;;;;;;;;;;;;;2204635;59;3735;-19
2023/11/06 06:07:29;;;;;;;;;;;;;;;;;;2202976;59;2706;-19
2023/11/06 06:09:59;;;;;;;;;;;;;;;;;;2205486;59;2389;-19
2023/11/06 06:12:32;;;;;;;;;;;;;;;;;;2203919;59;3004;-19
2023/11/06 06:15:03;;;;;;;;;;;;;;;;;;2205964;59;2333;-19
2023/11/06 06:17:37;;;;;;;;;;;;;;;;;;2205805;67;1815;-19
2023/11/06 06:20:12;;;;;;;;;;;;;;;;;;2205400;67;1821;-19
2023/11/06 06:22:46;;;;;;;;;;;;;;;;;;2206255;59;2258;-19
2023/11/06 06:25:16;;;;;;;;;;;;;;;;;;2205554;67;2785;-19
2023/11/06 06:27:47;;;;;;;;;;;;;;;;;;2206344;59;2583;-19
2023/11/06 06:30:18;;;;;;;;;;;;;;;;;;2206571;59;2462;-19
2023/11/06 06:32:48;;;;;;;;;;;;;;;;;;2206264;59;3227;-19
2023/11/06 06:35:18;;;;;;;;;;;;;;;;;;2205618;67;1928;-19
2023/11/06 06:37:48;;;;;;;;;;;;;;;;;;2206983;59;1785;-19
2023/11/06 06:40:20;;;;;;;;;;;;;;;;;;2206894;59;2631;-19
2023/11/06 06:42:50;;;;;;;;;;;;;;;;;;2205777;59;2790;-19
2023/11/06 06:45:20;;;;;;;;;;;;;;;;;;2204602;59;2567;-19
2023/11/06 06:47:50;;;;;;;;;;;;;;;;;;2206091;59;3045;-19
2023/11/06 06:50:21;;;;;;;;;;;;;;;;;;2204177;59;2995;-19
2023/11/06 06:52:51;;;;;;;;;;;;;;;;;;2205799;59;2690;-19
2023/11/06 06:55:23;;;;;;;;;;;;;;;;;;2205676;67;4514;-19
2023/11/06 06:57:56;;;;;;;;;;;;;;;;;;2206452;59;1957;-19
2023/11/06 07:00:27;;;;;;;;;;;;;;;;;;2205359;67;2315;-19
2023/11/06 07:02:57;;;;;;;;;;;;;;;;;;2205546;59;3598;-19
2023/11/06 07:05:28;;;;;;;;;;;;;;;;;;2204595;59;3371;-19
2023/11/06 07:07:58;;;;;;;;;;;;;;;;;;2207177;59;2810;-19
2023/11/06 07:10:30;;;;;;;;;;;;;;;;;;2206532;59;2286;-19
2023/11/06 07:13:00;;;;;;;;;;;;;;;;;;2206589;59;1879;-19
2023/11/06 07:15:30;;;;;;;;;;;;;;;;;;2205547;59;2303;-19
2023/11/06 07:18:01;;;;;;;;;;;;;;;;;;2207967;59;3231;-19
2023/11/06 07:20:32;;;;;;;;;;;;;;;;;;2206196;59;2095;-19
2023/11/06 07:23:04;;;;;;;;;;;;;;;;;;2207847;67;2941;-19
2023/11/06 07:25:34;;;;;;;;;;;;;;;;;;2204214;67;1969;-21
2023/11/06 07:28:05;;;;;;;;;;;;;;;;;;2207939;59;2244;-19
2023/11/06 07:30:35;;;;;;;;;;;;;;;;;;2205632;67;2621;-19
2023/11/06 07:33:05;;;;;;;;;;;;;;;;;;2204994;67;3439;-19
2023/11/06 07:35:36;;;;;;;;;;;;;;;;;;2204715;59;2631;-19
2023/11/06 07:38:06;;;;;;;;;;;;;;;;;;2206102;59;2165;-19
2023/11/06 07:40:38;;;;;;;;;;;;;;;;;;2207869;59;3683;-19
2023/11/06 07:43:09;;;;;;;;;;;;;;;;;;2206918;64;2406;-19
2023/11/06 07:45:39;;;;;;;;;;;;;;;;;;2206730;66;2334;-19
2023/11/06 07:48:10;;;;;;;;;;;;;;;;;;2206884;63;3459;-19
2023/11/06 07:50:40;;;;;;;;;;;;;;;;;;2203455;59;2828;-19
2023/11/06 07:53:11;;;;;;;;;;;;;;;;;;2204229;67;3536;-19
2023/11/06 07:55:41;;;;;;;;;;;;;;;;;;2202083;67;2922;-19
2023/11/06 07:58:11;;;;;;;;;;;;;;;;;;2204595;67;4073;-19
2023/11/06 08:00:41;;;;;;;;;;;;;;;;;;2202696;67;2969;-19
2023/11/06 08:03:12;;;;;;;;;;;;;;;;;;2204322;67;3829;-19
2023/11/06 08:05:42;;;;;;;;;;;;;;;;;;2201830;59;3356;-19
2023/11/06 08:08:12;;;;;;;;;;;;;;;;;;2204317;59;2623;-19
2023/11/06 08:10:43;;;;;;;;;;;;;;;;;;2205028;66;2602;-19
2023/11/06 08:13:13;;;;;;;;;;;;;;;;;;2203934;59;3348;-19
2023/11/06 08:15:43;;;;;;;;;;;;;;;;;;2202766;59;3351;-19
2023/11/06 08:18:14;;;;;;;;;;;;;;;;;;2207538;59;4425;-19
2023/11/06 08:20:44;;;;;;;;;;;;;;;;;;2203869;67;2692;-19
2023/11/06 08:23:15;;;;;;;;;;;;;;;;;;2204622;67;2679;-19
2023/11/06 08:25:46;;;;;;;;;;;;;;;;;;2202257;67;3423;-19
2023/11/06 08:28:16;;;;;;;;;;;;;;;;;;2204815;67;3771;-19
2023/11/06 08:30:47;;;;;;;;;;;;;;;;;;2202464;60;2642;-19
2023/11/06 08:33:17;;;;;;;;;;;;;;;;;;2204718;59;3040;-19
2023/11/06 08:35:49;;;;;;;;;;;;;;;;;;2201192;59;3701;-19
2023/11/06 08:38:22;;;;;;;;;;;;;;;;;;2204230;59;2683;-21
2023/11/06 08:40:53;;;;;;;;;;;;;;;;;;2206045;59;2427;-21
2023/11/06 08:43:25;;;;;;;;;;;;;;;;;;2204360;59;2538;-21
2023/11/06 08:45:56;;;;;;;;;;;;;;;;;;2208162;59;2610;-21
2023/11/06 08:48:26;;;;;;;;;;;;;;;;;;2204495;59;2639;-21
2023/11/06 08:50:56;;;;;;;;;;;;;;;;;;2205422;59;2439;-21
2023/11/06 08:53:27;;;;;;;;;;;;;;;;;;2203558;59;2686;-21
2023/11/06 08:55:57;;;;;;;;;;;;;;;;;;2207163;66;2464;-20
2023/11/06 08:58:28;;;;;;;;;;;;;;;;;;2203121;67;3401;-21
2023/11/06 09:01:00;;;;;;;;;;;;;;;;;;2204890;59;3413;-21
2023/11/06 09:03:30;;;;;;;;;;;;;;;;;;2202537;59;3923;-21
2023/11/06 09:06:00;;;;;;;;;;;;;;;;;;2204346;59;3234;-20
2023/11/06 09:08:31;;;;;;;;;;;;;;;;;;2203683;59;3566;-19
2023/11/06 09:11:01;;;;;;;;;;;;;;;;;;2204177;67;1991;-19
2023/11/06 09:13:35;;;;;;;;;;;;;;;;;;2203017;67;2477;-19
2023/11/06 09:16:06;;;;;;;;;;;;;;;;;;2204870;67;2508;-19
2023/11/06 09:18:38;;;;;;;;;;;;;;;;;;2203786;59;2625;-19
2023/11/06 09:21:13;;;;;;;;;;;;;;;;;;2206141;59;2814;-19
2023/11/06 09:23:43;;;;;;;;;;;;;;;;;;2205132;59;2402;-19
2023/11/06 09:26:13;;;;;;;;;;;;;;;;;;2206912;59;2227;-19
2023/11/06 09:28:44;;;;;;;;;;;;;;;;;;2205215;59;2974;-19
2023/11/06 09:31:14;;;;;;;;;;;;;;;;;;2205876;59;3639;-19
2023/11/06 09:33:45;;;;;;;;;;;;;;;;;;2203924;59;2749;-19
2023/11/06 09:36:15;;;;;;;;;;;;;;;;;;2206725;59;2720;-19
2023/11/06 09:38:46;;;;;;;;;;;;;;;;;;2203928;59;2605;-19
2023/11/06 09:41:16;;;;;;;;;;;;;;;;;;2207714;59;2652;-19
2023/11/06 09:43:46;;;;;;;;;;;;;;;;;;2202405;59;2202;-19
2023/11/06 09:46:16;;;;;;;;;;;;;;;;;;2206513;67;1799;-19
2023/11/06 09:48:47;;;;;;;;;;;;;;;;;;2205146;59;2906;-19
2023/11/06 09:51:17;;;;;;;;;;;;;;;;;;2206711;59;1925;-19
2023/11/06 09:53:48;;;;;;;;;;;;;;;;;;2204485;59;3651;-19
2023/11/06 09:56:19;;;;;;;;;;;;;;;;;;2205107;59;2497;-19
2023/11/06 09:58:50;;;;;;;;;;;;;;;;;;2205265;67;4477;-19
2023/11/06 10:01:25;;;;;;;;;;;;;;;;;;2204849;67;3841;-19
2023/11/06 10:03:56;;;;;;;;;;;;;;;;;;2205116;66;2801;-19
2023/11/06 10:06:27;;;;;;;;;;;;;;;;;;2202807;59;3417;-19
2023/11/06 10:08:57;;;;;;;;;;;;;;;;;;2205079;59;2941;-19
2023/11/06 10:11:27;;;;;;;;;;;;;;;;;;2199400;67;2473;-19
2023/11/06 10:13:58;;;;;;;;;;;;;;;;;;2203835;59;3106;-20
2023/11/06 10:16:29;;;;;;;;;;;;;;;;;;2203075;59;2791;-20
2023/11/06 10:19:13;;;;;;;;;;;;;;;;;;2206196;67;2564;-19
2023/11/06 10:21:43;;;;;;;;;;;;;;;;;;2202758;59;2827;-20
2023/11/06 10:24:14;;;;;;;;;;;;;;;;;;2206166;59;3447;-20
2023/11/06 10:26:44;;;;;;;;;;;;;;;;;;2204673;59;2403;-20
2023/11/06 10:29:15;;;;;;;;;;;;;;;;;;2206455;59;2563;-20
2023/11/06 10:31:47;;;;;;;;;;;;;;;;;;2204560;59;4052;-19
2023/11/06 10:34:28;;;;;;;;;;;;;;;;;;2205678;67;2618;-19
2023/11/06 10:36:59;;;;;;;;;;;;;;;;;;2204915;59;2583;-20
2023/11/06 10:39:30;;;;;;;;;;;;;;;;;;2203381;59;2707;-20
2023/11/06 10:42:03;;;;;;;;;;;;;;;;;;2206310;59;3060;-20
2023/11/06 10:44:35;;;;;;;;;;;;;;;;;;2203217;59;2621;-20
2023/11/06 10:47:08;;;;;;;;;;;;;;;;;;2205162;59;2517;-20
2023/11/06 10:50:01;;;;;;;;;;;;;;;;;;2204877;67;2676;-20
2023/11/06 10:52:32;;;;;;;;;;;;;;;;;;2203789;59;2505;-19
2023/11/06 10:55:03;;;;;;;;;;;;;;;;;;2204964;59;3833;-19
2023/11/06 10:57:34;;;;;;;;;;;;;;;;;;2203780;67;2480;-19
2023/11/06 11:00:07;;;;;;;;;;;;;;;;;;2206947;59;2948;-20
2023/11/06 11:02:44;;;;;;;;;;;;;;;;;;2204721;67;3278;-19
2023/11/06 11:05:15;;;;;;;;;;;;;;;;;;2206322;59;2354;-19
2023/11/06 11:07:48;;;;;;;;;;;;;;;;;;2204287;59;3266;-19
2023/11/06 11:10:20;;;;;;;;;;;;;;;;;;2206788;59;2417;-19
2023/11/06 11:12:52;;;;;;;;;;;;;;;;;;2203588;59;3212;-19
2023/11/06 11:15:26;;;;;;;;;;;;;;;;;;2207050;59;2492;-19
2023/11/06 11:17:58;;;;;;;;;;;;;;;;;;2205752;67;3857;-19
2023/11/06 11:20:48;;;;;;;;;;;;;;;;;;2205814;59;3422;-19
2023/11/06 11:23:34;;;;;;;;;;;;;;;;;;2205739;59;2293;-19
2023/11/06 11:26:06;;;;;;;;;;;;;;;;;;2206625;59;3471;-19
2023/11/06 11:28:57;;;;;;;;;;;;;;;;;;2204335;59;2381;-20
2023/11/06 11:31:31;;;;;;;;;;;;;;;;;;2205209;67;3822;-20
2023/11/06 11:34:01;;;;;;;;;;;;;;;;;;2205664;67;2804;-20
2023/11/06 11:36:33;;;;;;;;;;;;;;;;;;2203985;59;2651;-19
2023/11/06 11:39:17;;;;;;;;;;;;;;;;;;2207204;59;2330;-19
2023/11/06 11:42:07;;;;;;;;;;;;;;;;;;2203981;59;2536;-19
2023/11/06 11:44:48;;;;;;;;;;;;;;;;;;2204543;59;3605;-19
2023/11/06 11:47:19;;;;;;;;;;;;;;;;;;2205811;67;3791;-19
2023/11/06 11:49:50;;;;;;;;;;;;;;;;;;2200898;67;2703;-20
2023/11/06 11:52:23;;;;;;;;;;;;;;;;;;2205499;59;3308;-19
2023/11/06 11:54:53;;;;;;;;;;;;;;;;;;2204906;67;2316;-19
2023/11/06 11:57:32;;;;;;;;;;;;;;;;;;2206668;59;2461;-19
2023/11/06 12:00:03;;;;;;;;;;;;;;;;;;2205451;67;2177;-19
2023/11/06 12:02:35;;;;;;;;;;;;;;;;;;2204339;67;3768;-19
2023/11/06 12:05:12;;;;;;;;;;;;;;;;;;2205625;59;3146;-19
2023/11/06 12:07:43;;;;;;;;;;;;;;;;;;2204298;67;2527;-19
2023/11/06 12:10:16;;;;;;;;;;;;;;;;;;2205907;67;2214;-21
2023/11/06 12:12:46;;;;;;;;;;;;;;;;;;2203746;59;2671;-21
2023/11/06 12:15:16;;;;;;;;;;;;;;;;;;2205017;59;2530;-21
2023/11/06 12:17:47;;;;;;;;;;;;;;;;;;2203876;59;3622;-21
2023/11/06 12:20:18;;;;;;;;;;;;;;;;;;2205517;67;2157;-21
2023/11/06 12:22:48;;;;;;;;;;;;;;;;;;2204784;59;2056;-21
2023/11/06 12:25:30;;;;;;;;;;;;;;;;;;2206362;59;2049;-21
2023/11/06 12:28:04;;;;;;;;;;;;;;;;;;2203216;59;2728;-21
2023/11/06 12:30:35;;;;;;;;;;;;;;;;;;2203281;59;2842;-21
2023/11/06 12:33:10;;;;;;;;;;;;;;;;;;2205852;59;2815;-21
2023/11/06 12:35:44;;;;;;;;;;;;;;;;;;2203761;59;3620;-21
2023/11/06 12:38:31;;;;;;;;;;;;;;;;;;2205401;67;2510;-21
2023/11/06 12:41:04;;;;;;;;;;;;;;;;;;2204775;59;2794;-21
2023/11/06 12:43:34;;;;;;;;;;;;;;;;;;2203299;67;3598;-21
2023/11/06 12:46:05;;;;;;;;;;;;;;;;;;2204926;59;2362;-21
2023/11/06 12:48:35;;;;;;;;;;;;;;;;;;2204421;67;4502;-21
2023/11/06 12:51:10;;;;;;;;;;;;;;;;;;2204960;59;2310;-21
2023/11/06 12:53:46;;;;;;;;;;;;;;;;;;2203346;67;2705;-21
2023/11/06 12:56:16;;;;;;;;;;;;;;;;;;2205131;67;2588;-21
2023/11/06 12:58:46;;;;;;;;;;;;;;;;;;2204778;59;2451;-21
2023/11/06 13:01:23;;;;;;;;;;;;;;;;;;2206613;67;2574;-21
2023/11/06 13:03:54;;;;;;;;;;;;;;;;;;2204888;59;2411;-21
2023/11/06 13:06:27;;;;;;;;;;;;;;;;;;2205515;59;2645;-21
2023/11/06 13:08:57;;;;;;;;;;;;;;;;;;2203349;59;2612;-21
2023/11/06 13:11:29;;;;;;;;;;;;;;;;;;2202208;67;3681;-21
2023/11/06 13:14:00;;;;;;;;;;;;;;;;;;2203724;59;2464;-21
2023/11/06 13:16:31;;;;;;;;;;;;;;;;;;2204776;67;2646;-21
2023/11/06 13:19:03;;;;;;;;;;;;;;;;;;2204441;59;2464;-21
2023/11/06 13:21:34;;;;;;;;;;;;;;;;;;2203824;59;3471;-21
2023/11/06 13:24:06;;;;;;;;;;;;;;;;;;2202609;59;3001;-21
2023/11/06 13:26:37;;;;;;;;;;;;;;;;;;2204033;59;2074;-21
2023/11/06 13:29:11;;;;;;;;;;;;;;;;;;2204800;59;2602;-21
2023/11/06 13:31:45;;;;;;;;;;;;;;;;;;2204671;59;2383;-20
2023/11/06 13:34:16;;;;;;;;;;;;;;;;;;2205119;67;3786;-19
2023/11/06 13:36:49;;;;;;;;;;;;;;;;;;2203120;59;3415;-19
2023/11/06 13:39:20;;;;;;;;;;;;;;;;;;2205725;59;2124;-19
2023/11/06 13:41:58;;;;;;;;;;;;;;;;;;2204534;59;2458;-19
2023/11/06 13:44:30;;;;;;;;;;;;;;;;;;2205194;59;2444;-19
2023/11/06 13:47:00;;;;;;;;;;;;;;;;;;2203833;59;2548;-19
2023/11/06 13:49:31;;;;;;;;;;;;;;;;;;2206321;67;2000;-19
2023/11/06 13:52:19;;;;;;;;;;;;;;;;;;2204586;59;2450;-19
2023/11/06 13:54:51;;;;;;;;;;;;;;;;;;2203141;59;3730;-19
2023/11/06 13:57:22;;;;;;;;;;;;;;;;;;2205126;67;1759;-19
2023/11/06 13:59:53;;;;;;;;;;;;;;;;;;2203498;59;3691;-19
2023/11/06 14:02:26;;;;;;;;;;;;;;;;;;2205325;59;2335;-19
2023/11/06 14:04:57;;;;;;;;;;;;;;;;;;2204032;59;3477;-19
2023/11/06 14:07:28;;;;;;;;;;;;;;;;;;2204849;67;2162;-19
2023/11/06 14:09:58;;;;;;;;;;;;;;;;;;2204156;59;4464;-19
2023/11/06 14:12:30;;;;;;;;;;;;;;;;;;2205094;59;2559;-19
2023/11/06 14:15:00;;;;;;;;;;;;;;;;;;2204305;67;2296;-19
2023/11/06 14:17:30;;;;;;;;;;;;;;;;;;2205180;67;2987;-19
2023/11/06 14:20:01;;;;;;;;;;;;;;;;;;2203690;67;3224;-19
2023/11/06 14:22:31;;;;;;;;;;;;;;;;;;2204525;67;2584;-19
2023/11/06 14:25:03;;;;;;;;;;;;;;;;;;2199245;59;2590;-19
2023/11/06 14:27:34;;;;;;;;;;;;;;;;;;2204353;59;2222;-19
2023/11/06 14:30:05;;;;;;;;;;;;;;;;;;2202939;59;2697;-19
2023/11/06 14:32:35;;;;;;;;;;;;;;;;;;2205884;59;3187;-19
2023/11/06 14:35:06;;;;;;;;;;;;;;;;;;2205180;58;3193;-19
2023/11/06 14:37:38;;;;;;;;;;;;;;;;;;2204749;59;3164;-19
2023/11/06 14:40:17;;;;;;;;;;;;;;;;;;2203219;59;2638;-19
2023/11/06 14:42:48;;;;;;;;;;;;;;;;;;2202582;59;3418;-19
2023/11/06 14:45:18;;;;;;;;;;;;;;;;;;2205137;59;2372;-19
2023/11/06 14:47:48;;;;;;;;;;;;;;;;;;2202753;59;2850;-19
2023/11/06 14:50:19;;;;;;;;;;;;;;;;;;2208966;59;2738;-19
2023/11/06 14:52:50;;;;;;;;;;;;;;;;;;2204279;59;2413;-19
2023/11/06 14:55:21;;;;;;;;;;;;;;;;;;2203998;59;2926;-19
2023/11/06 14:57:51;;;;;;;;;;;;;;;;;;2204555;59;2317;-19
2023/11/06 15:00:22;;;;;;;;;;;;;;;;;;2205588;59;2370;-19
2023/11/06 15:02:58;;;;;;;;;;;;;;;;;;2203694;59;2729;-19
2023/11/06 15:05:31;;;;;;;;;;;;;;;;;;2204114;59;2545;-19
2023/11/06 15:08:01;;;;;;;;;;;;;;;;;;2204683;67;2444;-19
2023/11/06 15:10:31;;;;;;;;;;;;;;;;;;2205282;67;3027;-19
2023/11/06 15:13:02;;;;;;;;;;;;;;;;;;2203916;59;3010;-19
2023/11/06 15:15:32;;;;;;;;;;;;;;;;;;2204905;59;2357;-19
2023/11/06 15:18:03;;;;;;;;;;;;;;;;;;2204403;67;2515;-19
2023/11/06 15:20:33;;;;;;;;;;;;;;;;;;2204633;59;3464;-19
2023/11/06 15:23:04;;;;;;;;;;;;;;;;;;2203655;67;4365;-19
2023/11/06 15:25:34;;;;;;;;;;;;;;;;;;2205573;59;2347;-20
2023/11/06 15:28:05;;;;;;;;;;;;;;;;;;2202897;59;3549;-19
2023/11/06 15:30:35;;;;;;;;;;;;;;;;;;2204996;59;2877;-19
2023/11/06 15:33:06;;;;;;;;;;;;;;;;;;2203752;67;2591;-19
2023/11/06 15:35:37;;;;;;;;;;;;;;;;;;2205130;59;3263;-19
2023/11/06 15:38:07;;;;;;;;;;;;;;;;;;2200235;59;2660;-19
2023/11/06 15:40:38;;;;;;;;;;;;;;;;;;2204864;59;3615;-19
2023/11/06 15:43:08;;;;;;;;;;;;;;;;;;2199825;67;2499;-19
2023/11/06 15:45:38;;;;;;;;;;;;;;;;;;2204623;59;2008;-19
2023/11/06 15:48:10;;;;;;;;;;;;;;;;;;2203324;67;3018;-19
2023/11/06 15:50:40;;;;;;;;;;;;;;;;;;2205798;67;2492;-19
2023/11/06 15:53:16;;;;;;;;;;;;;;;;;;2203004;59;2455;-19
2023/11/06 15:55:46;;;;;;;;;;;;;;;;;;2204992;67;2197;-19
2023/11/06 15:58:16;;;;;;;;;;;;;;;;;;2204083;59;2163;-19
2023/11/06 16:00:48;;;;;;;;;;;;;;;;;;2204806;59;2390;-19
2023/11/06 16:03:19;;;;;;;;;;;;;;;;;;2203530;59;2789;-19
2023/11/06 16:05:53;;;;;;;;;;;;;;;;;;2202919;59;2204;-19
2023/11/06 16:08:24;;;;;;;;;;;;;;;;;;2206880;59;3029;-19
2023/11/06 16:10:54;;;;;;;;;;;;;;;;;;2201720;59;3440;-19
2023/11/06 16:13:24;;;;;;;;;;;;;;;;;;2203771;59;2700;-19
2023/11/06 16:15:55;;;;;;;;;;;;;;;;;;2202865;59;3219;-19
2023/11/06 16:18:26;;;;;;;;;;;;;;;;;;2201507;59;2835;-19
2023/11/06 16:20:56;;;;;;;;;;;;;;;;;;2202232;59;3842;-18
2023/11/06 16:23:26;;;;;;;;;;;;;;;;;;2202495;59;3586;-18
2023/11/06 16:25:56;;;;;;;;;;;;;;;;;;2201395;59;2673;-19
2023/11/06 16:28:27;;;;;;;;;;;;;;;;;;2204842;59;2611;-18
2023/11/06 16:30:57;;;;;;;;;;;;;;;;;;2202021;59;2641;-19
2023/11/06 16:33:28;;;;;;;;;;;;;;;;;;2204019;59;2039;-18
2023/11/06 16:35:58;;;;;;;;;;;;;;;;;;2202418;59;2723;-19
2023/11/06 16:38:29;;;;;;;;;;;;;;;;;;2203952;59;2692;-18
2023/11/06 16:41:00;;;;;;;;;;;;;;;;;;2202191;59;2343;-19
2023/11/06 16:43:30;;;;;;;;;;;;;;;;;;2202952;59;2416;-19
2023/11/06 16:46:01;;;;;;;;;;;;;;;;;;2201407;67;2859;-18
2023/11/06 16:48:31;;;;;;;;;;;;;;;;;;2204799;59;2442;-18
2023/11/06 16:51:01;;;;;;;;;;;;;;;;;;2203366;59;2580;-18
2023/11/06 16:53:32;;;;;;;;;;;;;;;;;;2203538;67;2813;-19
2023/11/06 16:56:02;;;;;;;;;;;;;;;;;;2202582;59;3406;-19
2023/11/06 16:58:32;;;;;;;;;;;;;;;;;;2204253;59;2347;-19
2023/11/06 17:01:03;;;;;;;;;;;;;;;;;;2202718;63;2382;-19
2023/11/06 17:03:34;;;;;;;;;;;;;;;;;;2206774;59;3538;-19
2023/11/06 17:06:05;;;;;;;;;;;;;;;;;;2203766;59;2752;-19
2023/11/06 17:08:35;;;;;;;;;;;;;;;;;;2204980;59;3793;-19
2023/11/06 17:11:05;;;;;;;;;;;;;;;;;;2203769;67;2748;-19
2023/11/06 17:13:35;;;;;;;;;;;;;;;;;;2204924;67;2626;-19
2023/11/06 17:16:07;;;;;;;;;;;;;;;;;;2202536;67;2330;-18
2023/11/06 17:18:38;;;;;;;;;;;;;;;;;;2205504;59;2436;-19
2023/11/06 17:21:08;;;;;;;;;;;;;;;;;;2202965;67;2496;-18
2023/11/06 17:23:39;;;;;;;;;;;;;;;;;;2203193;67;3509;-19
2023/11/06 17:26:10;;;;;;;;;;;;;;;;;;2203000;67;3538;-18
2023/11/06 17:28:40;;;;;;;;;;;;;;;;;;2204438;59;3752;-18
2023/11/06 17:31:11;;;;;;;;;;;;;;;;;;2203035;59;2952;-18